createdAt,value
2022-08-22T00:01:39.724Z,6.15
2022-08-22T00:04:21.371Z,8.75
2022-08-22T00:07:00.334Z,8.65
2022-08-22T00:09:35.198Z,6.90
2022-08-22T00:12:20.728Z,7.15
2022-08-22T00:14:51.807Z,8.50
2022-08-22T00:17:54.960Z,8.70
2022-08-22T00:20:44.912Z,5.53
2022-08-22T00:23:34.005Z,10.98
2022-08-22T00:26:11.631Z,7.80
2022-08-22T00:28:48.177Z,6.38
2022-08-22T00:31:35.665Z,9.65
2022-08-22T00:34:37.919Z,7.43
2022-08-22T00:37:24.321Z,9.45
2022-08-22T00:39:55.452Z,8.43
2022-08-22T00:42:40.405Z,8.18
2022-08-22T00:45:21.251Z,7.40
2022-08-22T00:48:14.695Z,7.78
2022-08-22T00:51:14.085Z,7.28
2022-08-22T00:53:47.413Z,6.25
2022-08-22T00:56:36.363Z,6.25
2022-08-22T00:59:18.055Z,4.95
2022-08-22T01:02:16.557Z,6.65
2022-08-22T01:04:53.337Z,9.35
2022-08-22T01:07:40.071Z,8.15
2022-08-22T01:10:20.175Z,8.43
2022-08-22T01:13:14.062Z,7.35
2022-08-22T01:15:42.780Z,6.93
2022-08-22T01:18:30.184Z,9.88
2022-08-22T01:25:10.811Z,5.90
2022-08-22T01:34:02.202Z,7.65
2022-08-22T01:39:25.832Z,8.30
2022-08-22T01:42:15.251Z,7.43
2022-08-22T01:44:51.138Z,8.35
2022-08-22T01:47:36.574Z,6.43
2022-08-22T01:50:23.845Z,8.38
2022-08-22T01:53:02.468Z,5.63
2022-08-22T01:55:52.527Z,6.47
2022-08-22T01:58:26.859Z,6.78
2022-08-22T02:01:13.543Z,5.70
2022-08-22T02:03:51.380Z,6.32
2022-08-22T02:06:32.390Z,6.47
2022-08-22T02:09:15.056Z,7.03
2022-08-22T02:11:50.026Z,8.23
2022-08-22T02:14:37.009Z,7.93
2022-08-22T02:17:10.981Z,6.95
2022-08-22T02:20:01.793Z,6.68
2022-08-22T02:22:31.792Z,11.18
2022-08-22T02:30:27.406Z,9.57
2022-08-22T02:33:06.131Z,8.82
2022-08-22T02:35:46.922Z,7.78
2022-08-22T02:38:41.206Z,7.90
2022-08-22T02:41:31.148Z,8.00
2022-08-22T02:44:05.186Z,7.70
2022-08-22T02:46:51.381Z,5.85
2022-08-22T02:49:21.244Z,7.15
2022-08-22T02:51:57.293Z,8.95
2022-08-22T02:54:27.201Z,9.73
2022-08-22T02:57:11.381Z,10.13
2022-08-22T03:00:31.077Z,8.05
2022-08-22T03:02:59.859Z,10.43
2022-08-22T03:05:28.611Z,8.50
2022-08-22T03:08:22.847Z,6.28
2022-08-22T03:11:18.026Z,10.90
2022-08-22T03:13:57.448Z,8.00
2022-08-22T03:16:43.256Z,5.68
2022-08-22T03:19:19.463Z,6.32
2022-08-22T03:21:52.250Z,6.63
2022-08-22T03:24:23.590Z,6.03
2022-08-22T03:27:14.265Z,7.63
2022-08-22T03:30:06.377Z,6.97
2022-08-22T03:32:59.209Z,7.80
2022-08-22T03:35:35.439Z,7.78
2022-08-22T03:38:29.229Z,7.28
2022-08-22T03:41:17.896Z,12.52
2022-08-22T03:44:07.081Z,7.82
2022-08-22T03:46:58.578Z,10.60
2022-08-22T03:49:59.745Z,9.25
2022-08-22T03:53:04.314Z,7.75
2022-08-22T03:55:43.885Z,8.77
2022-08-22T03:58:32.126Z,9.73
2022-08-22T04:01:33.682Z,9.75
2022-08-22T04:04:32.896Z,8.90
2022-08-22T04:07:03.510Z,11.02
2022-08-22T04:09:35.901Z,11.65
2022-08-22T04:12:19.105Z,9.93
2022-08-22T04:15:07.126Z,8.60
2022-08-22T04:17:53.293Z,12.05
2022-08-22T04:20:44.473Z,9.75
2022-08-22T04:23:33.858Z,11.15
2022-08-22T04:26:42.109Z,7.10
2022-08-22T04:29:17.694Z,10.00
2022-08-22T04:32:17.344Z,7.35
2022-08-22T04:35:02.756Z,9.95
2022-08-22T04:37:37.862Z,9.57
2022-08-22T04:40:23.643Z,6.20
2022-08-22T04:45:48.715Z,7.45
2022-08-22T04:48:25.513Z,6.68
2022-08-22T04:51:01.980Z,7.90
2022-08-22T04:53:32.076Z,11.18
2022-08-22T04:56:22.417Z,11.00
2022-08-22T04:59:11.601Z,7.90
2022-08-22T05:01:41.814Z,8.35
2022-08-22T05:04:13.416Z,8.60
2022-08-22T05:06:50.611Z,8.88
2022-08-22T05:09:22.261Z,9.75
2022-08-22T05:11:53.856Z,11.10
2022-08-22T05:14:50.908Z,9.20
2022-08-22T05:17:25.775Z,8.70
2022-08-22T05:19:56.916Z,6.38
2022-08-22T05:22:36.225Z,8.63
2022-08-22T05:25:12.465Z,7.07
2022-08-22T05:27:44.540Z,10.63
2022-08-22T05:30:16.396Z,8.90
2022-08-22T05:32:57.934Z,8.93
2022-08-22T05:35:36.980Z,9.48
2022-08-22T05:38:10.153Z,10.73
2022-08-22T05:40:37.920Z,11.50
2022-08-22T05:43:07.975Z,8.77
2022-08-22T05:45:36.746Z,9.63
2022-08-22T05:48:18.346Z,9.60
2022-08-22T05:50:53.223Z,10.95
2022-08-22T05:53:33.707Z,6.60
2022-08-22T05:56:13.091Z,6.57
2022-08-22T05:58:45.956Z,8.43
2022-08-22T06:01:42.952Z,13.98
2022-08-22T06:04:31.492Z,9.98
2022-08-22T06:07:14.972Z,12.20
2022-08-22T06:09:47.733Z,8.18
2022-08-22T06:12:26.394Z,11.35
2022-08-22T06:15:02.590Z,10.60
2022-08-22T06:20:20.623Z,12.48
2022-08-22T06:22:52.874Z,7.68
2022-08-22T06:25:32.544Z,11.82
2022-08-22T06:28:04.162Z,9.18
2022-08-22T06:30:31.909Z,10.65
2022-08-22T06:33:12.288Z,16.33
2022-08-22T06:36:02.850Z,8.30
2022-08-22T06:38:34.653Z,10.48
2022-08-22T06:41:13.729Z,13.00
2022-08-22T06:43:44.087Z,11.90
2022-08-22T06:46:14.903Z,9.20
2022-08-22T06:48:43.009Z,14.23
2022-08-22T06:51:12.444Z,9.73
2022-08-22T06:53:54.501Z,11.20
2022-08-22T06:56:25.475Z,11.10
2022-08-22T06:59:00.153Z,9.07
2022-08-22T07:01:35.375Z,11.50
2022-08-22T07:04:10.480Z,11.07
2022-08-22T07:06:44.330Z,12.18
2022-08-22T07:09:28.963Z,11.18
2022-08-22T07:11:59.472Z,11.73
2022-08-22T07:14:43.113Z,12.27
2022-08-22T07:17:18.964Z,10.95
2022-08-22T07:19:57.046Z,12.18
2022-08-22T07:22:30.759Z,12.25
2022-08-22T07:25:08.362Z,12.00
2022-08-22T07:27:41.261Z,10.00
2022-08-22T07:30:13.168Z,10.80
2022-08-22T07:33:25.279Z,11.57
2022-08-22T07:36:00.791Z,12.32
2022-08-22T07:38:42.971Z,10.38
2022-08-22T07:41:41.952Z,12.13
2022-08-22T07:44:21.450Z,12.02
2022-08-22T07:46:54.040Z,15.65
2022-08-22T07:49:49.752Z,13.05
2022-08-22T07:52:17.827Z,11.95
2022-08-22T07:54:58.554Z,11.43
2022-08-22T07:57:43.451Z,10.82
2022-08-22T08:00:17.328Z,14.57
2022-08-22T08:02:51.730Z,10.60
2022-08-22T08:05:22.167Z,8.90
2022-08-22T08:07:51.643Z,12.52
2022-08-22T08:10:34.807Z,11.02
2022-08-22T08:13:12.073Z,9.38
2022-08-22T08:15:40.325Z,8.98
2022-08-22T08:18:21.826Z,9.88
2022-08-22T08:21:24.752Z,11.50
2022-08-22T08:23:53.477Z,8.88
2022-08-22T08:26:32.979Z,9.55
2022-08-22T08:29:00.499Z,11.32
2022-08-22T08:31:43.297Z,6.47
2022-08-22T08:34:21.157Z,9.73
2022-08-22T08:36:55.584Z,8.10
2022-08-22T08:39:39.781Z,8.93
2022-08-22T08:42:54.396Z,8.15
2022-08-22T08:45:24.425Z,9.10
2022-08-22T08:48:16.020Z,7.50
2022-08-22T08:51:11.904Z,8.35
2022-08-22T08:54:05.960Z,7.68
2022-08-22T08:56:47.333Z,7.25
2022-08-22T09:00:00.338Z,5.32
2022-08-22T09:02:48.853Z,6.68
2022-08-22T09:05:40.591Z,5.72
2022-08-22T09:08:28.376Z,5.53
2022-08-22T09:11:09.816Z,6.30
2022-08-22T09:14:00.946Z,4.10
2022-08-22T09:16:51.802Z,6.28
2022-08-22T09:19:50.004Z,8.23
2022-08-22T09:22:50.667Z,7.63
2022-08-22T09:25:20.871Z,4.60
2022-08-22T09:28:02.900Z,7.15
2022-08-22T09:31:17.075Z,9.82
2022-08-22T09:34:13.372Z,8.20
2022-08-22T09:37:14.163Z,4.50
2022-08-22T09:40:05.085Z,5.18
2022-08-22T09:42:51.039Z,7.22
2022-08-22T09:45:35.968Z,4.55
2022-08-22T09:48:23.880Z,5.85
2022-08-22T09:51:31.584Z,6.00
2022-08-22T09:54:22.107Z,5.25
2022-08-22T09:57:07.375Z,5.43
2022-08-22T10:00:15.255Z,7.30
2022-08-22T10:03:03.326Z,5.22
2022-08-22T10:05:58.382Z,4.43
2022-08-22T10:08:40.356Z,8.30
2022-08-22T10:11:30.041Z,5.97
2022-08-22T10:14:04.994Z,6.80
2022-08-22T10:16:33.892Z,5.68
2022-08-22T10:19:31.969Z,4.65
2022-08-22T10:22:14.370Z,4.60
2022-08-22T10:24:49.637Z,10.95
2022-08-22T10:27:29.571Z,5.65
2022-08-22T10:30:10.615Z,4.15
2022-08-22T10:32:59.820Z,7.93
2022-08-22T10:35:47.346Z,6.20
2022-08-22T10:38:31.675Z,6.88
2022-08-22T10:41:15.853Z,4.50
2022-08-22T10:44:00.380Z,4.80
2022-08-22T10:46:46.257Z,5.88
2022-08-22T10:49:29.128Z,6.53
2022-08-22T10:52:14.761Z,4.10
2022-08-22T10:54:52.227Z,4.95
2022-08-22T10:57:27.993Z,5.88
2022-08-22T10:59:58.405Z,4.43
2022-08-22T11:02:36.290Z,6.25
2022-08-22T11:05:15.088Z,6.28
2022-08-22T11:07:55.623Z,5.88
2022-08-22T11:10:40.618Z,5.13
2022-08-22T11:13:49.717Z,6.53
2022-08-22T11:16:21.850Z,7.32
2022-08-22T11:19:23.331Z,5.97
2022-08-22T11:22:22.170Z,4.82
2022-08-22T11:25:03.712Z,6.25
2022-08-22T11:27:45.721Z,4.07
2022-08-22T11:30:18.175Z,5.20
2022-08-22T11:33:13.762Z,7.30
2022-08-22T11:35:49.694Z,4.35
2022-08-22T11:38:32.079Z,6.70
2022-08-22T11:41:10.010Z,6.72
2022-08-22T11:43:48.726Z,5.93
2022-08-22T11:46:38.320Z,5.22
2022-08-22T11:49:25.525Z,6.70
2022-08-22T11:52:05.315Z,3.90
2022-08-22T11:54:51.666Z,4.72
2022-08-22T11:57:30.976Z,5.88
2022-08-22T12:00:24.132Z,6.22
2022-08-22T12:03:14.550Z,4.40
2022-08-22T12:06:29.994Z,6.43
2022-08-22T12:09:26.933Z,7.00
2022-08-22T12:12:34.954Z,6.35
2022-08-22T12:15:21.516Z,5.90
2022-08-22T12:18:21.385Z,6.38
2022-08-22T12:21:03.283Z,5.82
2022-08-22T12:23:49.321Z,5.88
2022-08-22T12:26:44.725Z,5.10
2022-08-22T12:29:45.041Z,5.03
2022-08-22T12:32:33.335Z,6.22
2022-08-22T12:35:13.726Z,4.18
2022-08-22T12:38:28.148Z,5.45
2022-08-22T12:41:08.077Z,5.67
2022-08-22T12:43:59.798Z,7.45
2022-08-22T12:46:52.365Z,10.02
2022-08-22T12:49:44.919Z,10.77
2022-08-22T12:52:45.243Z,5.53
2022-08-22T12:55:43.385Z,4.93
2022-08-22T12:58:51.059Z,4.72
2022-08-22T13:01:19.168Z,4.90
2022-08-22T13:04:03.483Z,8.05
2022-08-22T13:06:42.614Z,5.43
2022-08-22T13:09:28.925Z,6.30
2022-08-22T13:12:20.180Z,5.35
2022-08-22T13:14:52.124Z,6.82
2022-08-22T13:17:24.486Z,6.18
2022-08-22T13:19:52.123Z,5.10
2022-08-22T13:22:25.894Z,8.48
2022-08-22T13:25:08.677Z,7.88
2022-08-22T13:27:51.254Z,6.57
2022-08-22T13:30:32.350Z,6.78
2022-08-22T13:33:11.696Z,4.55
2022-08-22T13:35:52.154Z,7.13
2022-08-22T13:38:26.134Z,7.45
2022-08-22T13:40:56.334Z,5.78
2022-08-22T13:43:30.712Z,4.82
2022-08-22T13:46:03.789Z,6.65
2022-08-22T13:49:00.808Z,5.85
2022-08-22T13:51:44.493Z,5.28
2022-08-22T13:54:16.136Z,6.30
2022-08-22T13:57:08.674Z,7.82
2022-08-22T13:59:52.670Z,5.13
2022-08-22T14:02:57.250Z,6.10
2022-08-22T14:05:46.449Z,4.90
2022-08-22T14:08:22.174Z,5.75
2022-08-22T14:11:27.428Z,4.88
2022-08-22T14:14:02.226Z,6.50
2022-08-22T14:16:50.919Z,7.18
2022-08-22T14:19:52.670Z,6.70
2022-08-22T14:22:35.410Z,4.35
2022-08-22T14:25:24.653Z,6.00
2022-08-22T14:27:59.253Z,4.75
2022-08-22T14:31:00.576Z,3.85
2022-08-22T14:33:36.868Z,4.15
2022-08-22T14:36:40.674Z,3.70
2022-08-22T14:39:16.501Z,3.40
2022-08-22T14:41:55.585Z,6.15
2022-08-22T14:44:31.303Z,5.55
2022-08-22T14:47:03.735Z,7.18
2022-08-22T14:49:57.615Z,5.78
2022-08-22T14:52:32.778Z,5.47
2022-08-22T14:55:08.450Z,6.30
2022-08-22T14:57:41.060Z,4.65
2022-08-22T15:00:13.413Z,6.60
2022-08-22T15:02:42.378Z,9.75
2022-08-22T15:05:18.041Z,6.25
2022-08-22T15:07:54.306Z,5.22
2022-08-22T15:10:21.618Z,5.32
2022-08-22T15:12:53.733Z,4.45
2022-08-22T15:15:49.376Z,4.95
2022-08-22T15:18:34.657Z,4.63
2022-08-22T15:21:12.344Z,5.25
2022-08-22T15:23:45.465Z,3.90
2022-08-22T15:26:28.518Z,5.82
2022-08-22T15:29:17.821Z,6.22
2022-08-22T15:31:51.993Z,5.22
2022-08-22T15:34:34.095Z,7.53
2022-08-22T15:37:17.846Z,5.57
2022-08-22T15:40:07.505Z,5.95
2022-08-22T15:42:48.943Z,5.45
2022-08-22T15:45:37.273Z,5.80
2022-08-22T15:48:26.593Z,8.80
2022-08-22T15:51:03.323Z,4.40
2022-08-22T15:53:53.251Z,6.85
2022-08-22T15:56:28.358Z,4.63
2022-08-22T15:59:20.944Z,5.40
2022-08-22T16:01:55.339Z,5.68
2022-08-22T16:04:33.794Z,6.30
2022-08-22T16:07:01.868Z,5.57
2022-08-22T16:09:50.107Z,8.15
2022-08-22T16:12:38.679Z,5.93
2022-08-22T16:15:27.816Z,7.18
2022-08-22T16:17:57.539Z,4.78
2022-08-22T16:20:24.426Z,5.95
2022-08-22T16:22:57.281Z,6.30
2022-08-22T16:25:45.734Z,6.30
2022-08-22T16:29:02.549Z,6.95
2022-08-22T16:31:44.680Z,5.47
2022-08-22T16:34:17.702Z,8.48
2022-08-22T16:36:53.957Z,6.63
2022-08-22T16:39:21.117Z,5.10
2022-08-22T16:42:13.086Z,5.55
2022-08-22T16:45:11.616Z,6.57
2022-08-22T16:47:58.525Z,7.03
2022-08-22T16:50:33.949Z,5.50
2022-08-22T16:53:06.558Z,4.75
2022-08-22T16:55:55.261Z,7.10
2022-08-22T16:58:44.743Z,4.40
2022-08-22T17:01:26.751Z,5.65
2022-08-22T17:04:05.777Z,6.28
2022-08-22T17:06:47.447Z,5.10
2022-08-22T17:12:28.094Z,5.55
2022-08-22T17:15:10.100Z,7.80
2022-08-22T17:17:49.600Z,5.57
2022-08-22T17:41:00.944Z,6.35
2022-08-22T17:46:40.260Z,4.47
2022-08-22T17:49:45.270Z,4.40
2022-08-22T17:52:34.080Z,4.40
2022-08-22T17:55:23.873Z,6.60
2022-08-22T17:58:37.765Z,8.48
2022-08-22T18:01:10.588Z,8.52
2022-08-22T18:03:42.580Z,6.38
2022-08-22T18:06:18.404Z,5.32
2022-08-22T18:09:13.618Z,5.90
2022-08-22T18:11:54.590Z,7.47
2022-08-22T18:14:49.765Z,6.82
2022-08-22T18:17:28.497Z,6.78
2022-08-22T18:20:17.480Z,6.47
2022-08-22T18:23:01.006Z,6.70
2022-08-22T18:25:54.346Z,7.00
2022-08-22T18:28:29.133Z,6.22
2022-08-22T18:31:03.311Z,9.43
2022-08-22T18:33:33.235Z,7.32
2022-08-22T18:36:36.474Z,9.90
2022-08-22T18:39:20.566Z,7.25
2022-08-22T18:42:10.983Z,11.25
2022-08-22T18:44:40.088Z,5.50
2022-08-22T18:47:31.922Z,9.10
2022-08-22T18:50:02.822Z,6.43
2022-08-22T18:52:36.731Z,7.78
2022-08-22T18:55:30.999Z,6.32
2022-08-22T18:58:19.736Z,6.63
2022-08-22T19:00:49.579Z,11.52
2022-08-22T19:03:54.502Z,8.88
2022-08-22T19:06:58.883Z,8.07
2022-08-22T19:09:48.683Z,9.50
2022-08-22T19:12:49.660Z,7.07
2022-08-22T19:15:49.488Z,5.50
2022-08-22T19:18:35.338Z,8.00
2022-08-22T19:21:42.651Z,7.50
2022-08-22T19:24:20.553Z,8.45
2022-08-22T19:27:05.492Z,9.68
2022-08-22T19:29:32.398Z,7.43
2022-08-22T19:32:03.130Z,8.45
2022-08-22T19:34:34.315Z,5.57
2022-08-22T19:37:31.043Z,7.75
2022-08-22T19:40:10.068Z,9.30
2022-08-22T19:48:15.906Z,9.48
2022-08-22T19:50:43.746Z,8.60
2022-08-22T19:53:49.477Z,8.50
2022-08-22T19:57:04.225Z,9.45
2022-08-22T20:05:25.563Z,9.13
2022-08-22T20:08:23.075Z,11.48
2022-08-22T20:11:18.926Z,10.60
2022-08-22T20:13:58.711Z,9.00
2022-08-22T20:17:12.188Z,5.93
2022-08-22T20:20:16.552Z,10.68
2022-08-22T20:22:39.560Z,9.88
2022-08-22T20:29:09.268Z,23.33
2022-08-22T20:31:39.145Z,25.80
2022-08-22T20:34:46.492Z,21.83
2022-08-22T20:42:19.198Z,18.38
2022-08-22T20:52:51.928Z,7.55
2022-08-22T21:20:48.972Z,10.18
2022-08-22T21:24:10.877Z,6.60
2022-08-22T21:27:53.481Z,10.75
2022-08-22T21:33:24.036Z,8.70
2022-08-22T21:35:59.593Z,10.40
2022-08-22T21:38:27.645Z,9.23
2022-08-22T21:41:01.990Z,8.68
2022-08-22T21:43:41.795Z,9.83
2022-08-22T21:46:28.710Z,8.07
2022-08-22T21:49:04.426Z,7.25
2022-08-22T21:51:43.557Z,7.55
2022-08-22T21:54:35.311Z,8.30
2022-08-22T21:57:11.114Z,6.90
2022-08-22T21:59:52.163Z,8.35
2022-08-22T22:02:29.529Z,10.23
2022-08-22T22:04:58.880Z,12.07
2022-08-22T22:07:26.397Z,9.95
2022-08-22T22:09:54.974Z,9.32
2022-08-22T22:12:22.874Z,7.50
2022-08-22T22:14:50.135Z,9.05
2022-08-22T22:17:20.921Z,9.48
2022-08-22T22:19:48.331Z,7.05
2022-08-22T22:22:15.523Z,7.35
2022-08-22T22:24:42.319Z,8.68
2022-08-22T22:27:11.745Z,9.32
2022-08-22T22:29:42.257Z,8.75
2022-08-22T22:32:09.628Z,7.55
2022-08-22T22:34:36.989Z,11.93
2022-08-22T22:37:06.142Z,7.80
2022-08-22T22:39:39.069Z,8.45
2022-08-22T22:42:08.385Z,8.55
2022-08-22T22:44:35.198Z,11.45
2022-08-22T22:47:02.659Z,7.00
2022-08-22T22:49:32.866Z,8.20
2022-08-22T22:52:01.113Z,6.75
2022-08-22T22:54:28.531Z,7.57
2022-08-22T22:56:58.585Z,9.27
2022-08-22T22:59:25.605Z,7.93
2022-08-22T23:02:12.477Z,10.48
2022-08-22T23:04:43.861Z,9.75
2022-08-22T23:07:12.882Z,6.18
2022-08-22T23:09:44.701Z,8.68
2022-08-22T23:12:15.069Z,10.68
2022-08-22T23:14:41.971Z,10.70
2022-08-22T23:17:08.813Z,9.13
2022-08-22T23:19:38.718Z,6.97
2022-08-22T23:22:09.133Z,8.50
2022-08-22T23:24:40.199Z,11.50
2022-08-22T23:27:09.428Z,10.05
2022-08-22T23:29:38.378Z,7.35
2022-08-22T23:32:05.648Z,9.43
2022-08-22T23:34:39.054Z,10.13
2022-08-22T23:37:10.124Z,8.88
2022-08-22T23:39:39.281Z,9.30
2022-08-22T23:42:07.993Z,8.13
2022-08-22T23:44:36.920Z,10.30
2022-08-22T23:47:05.553Z,11.63
2022-08-22T23:49:35.640Z,8.68
2022-08-22T23:52:06.095Z,9.05
2022-08-22T23:54:35.682Z,9.70
2022-08-22T23:57:11.953Z,10.93
2022-08-22T23:59:44.551Z,8.07
